sensor_id;sensor_type;location;lat;lon;timestamp;pressure;altitude;pressure_sealevel;temperature;humidity
80624;BME280;69981;44.768;9.600;2023-05-17T00:01:43;96681.00;;;10.38;93.90
80624;BME280;69981;44.768;9.600;2023-05-17T00:04:09;96676.56;;;10.44;92.89
80624;BME280;69981;44.768;9.600;2023-05-17T00:06:35;96679.50;;;10.42;92.79
80624;BME280;69981;44.768;9.600;2023-05-17T00:09:00;96678.31;;;10.38;93.03
80624;BME280;69981;44.768;9.600;2023-05-17T00:11:26;96673.81;;;10.32;93.47
80624;BME280;69981;44.768;9.600;2023-05-17T00:13:51;96683.78;;;10.32;94.24
80624;BME280;69981;44.768;9.600;2023-05-17T00:16:17;96684.41;;;10.34;93.65
80624;BME280;69981;44.768;9.600;2023-05-17T00:18:42;96687.69;;;10.36;93.52
80624;BME280;69981;44.768;9.600;2023-05-17T00:21:08;96689.56;;;10.35;93.62
80624;BME280;69981;44.768;9.600;2023-05-17T00:23:33;96688.75;;;10.35;93.68
80624;BME280;69981;44.768;9.600;2023-05-17T00:25:59;96684.63;;;10.32;94.07
80624;BME280;69981;44.768;9.600;2023-05-17T00:28:24;96690.13;;;10.26;94.27
80624;BME280;69981;44.768;9.600;2023-05-17T00:30:50;96695.16;;;10.04;95.03
80624;BME280;69981;44.768;9.600;2023-05-17T00:33:15;96694.94;;;10.05;95.38
80624;BME280;69981;44.768;9.600;2023-05-17T00:35:41;96698.22;;;10.07;95.62
80624;BME280;69981;44.768;9.600;2023-05-17T00:38:06;96693.56;;;10.14;95.15
80624;BME280;69981;44.768;9.600;2023-05-17T00:40:32;96698.06;;;10.21;94.97
80624;BME280;69981;44.768;9.600;2023-05-17T00:42:57;96687.28;;;10.21;94.96
80624;BME280;69981;44.768;9.600;2023-05-17T00:45:23;96690.81;;;10.21;94.81
80624;BME280;69981;44.768;9.600;2023-05-17T00:47:48;96693.97;;;10.18;94.55
80624;BME280;69981;44.768;9.600;2023-05-17T00:50:14;96692.31;;;10.17;94.90
80624;BME280;69981;44.768;9.600;2023-05-17T00:52:40;96690.81;;;10.21;94.81
80624;BME280;69981;44.768;9.600;2023-05-17T00:55:05;96701.16;;;10.24;94.79
80624;BME280;69981;44.768;9.600;2023-05-17T00:57:31;96688.16;;;10.33;94.63
80624;BME280;69981;44.768;9.600;2023-05-17T00:59:59;96685.09;;;10.29;94.80
80624;BME280;69981;44.768;9.600;2023-05-17T01:02:25;96680.53;;;10.30;94.37
80624;BME280;69981;44.768;9.600;2023-05-17T01:04:50;96680.75;;;10.28;94.68
80624;BME280;69981;44.768;9.600;2023-05-17T01:07:16;96682.41;;;10.29;94.79
80624;BME280;69981;44.768;9.600;2023-05-17T01:09:45;96683.31;;;10.23;94.95
80624;BME280;69981;44.768;9.600;2023-05-17T01:12:31;96674.94;;;10.43;93.99
80624;BME280;69981;44.768;9.600;2023-05-17T01:15:18;96679.59;;;10.36;94.09
80624;BME280;69981;44.768;9.600;2023-05-17T01:18:03;96684.03;;;10.30;94.20
80624;BME280;69981;44.768;9.600;2023-05-17T01:20:46;96680.75;;;10.28;94.29
80624;BME280;69981;44.768;9.600;2023-05-17T01:23:30;96685.31;;;10.28;94.46
80624;BME280;69981;44.768;9.600;2023-05-17T01:26:14;96685.53;;;10.26;94.24
80624;BME280;69981;44.768;9.600;2023-05-17T01:28:43;96684.63;;;10.32;93.94
80624;BME280;69981;44.768;9.600;2023-05-17T01:31:10;96686.75;;;10.30;93.76
80624;BME280;69981;44.768;9.600;2023-05-17T01:33:36;96691.97;;;10.25;94.32
80624;BME280;69981;44.768;9.600;2023-05-17T01:36:02;96688.25;;;10.26;94.23
80624;BME280;69981;44.768;9.600;2023-05-17T01:38:28;96688.00;;;10.28;94.01
80624;BME280;69981;44.768;9.600;2023-05-17T01:43:25;96682.72;;;10.21;94.46
80624;BME280;69981;44.768;9.600;2023-05-17T01:46:11;96687.91;;;10.04;94.36
80624;BME280;69981;44.768;9.600;2023-05-17T01:48:39;96688.59;;;10.18;94.59
80624;BME280;69981;44.768;9.600;2023-05-17T01:51:08;96681.94;;;10.14;94.55
80624;BME280;69981;44.768;9.600;2023-05-17T01:53:43;96684.88;;;10.12;94.39
80624;BME280;69981;44.768;9.600;2023-05-17T01:56:15;96684.06;;;10.12;94.51
80624;BME280;69981;44.768;9.600;2023-05-17T01:58:47;96692.31;;;10.17;94.61
80624;BME280;69981;44.768;9.600;2023-05-17T02:01:15;96692.97;;;10.12;94.50
80624;BME280;69981;44.768;9.600;2023-05-17T02:03:41;96694.25;;;10.10;94.45
80624;BME280;69981;44.768;9.600;2023-05-17T02:06:07;96692.00;;;10.07;94.86
80624;BME280;69981;44.768;9.600;2023-05-17T02:08:32;96686.59;;;10.07;94.97
80624;BME280;69981;44.768;9.600;2023-05-17T02:10:58;96687.00;;;10.10;94.61
80624;BME280;69981;44.768;9.600;2023-05-17T02:13:23;96684.50;;;10.09;95.00
80624;BME280;69981;44.768;9.600;2023-05-17T02:15:49;96682.53;;;10.16;94.47
80624;BME280;69981;44.768;9.600;2023-05-17T02:18:14;96686.94;;;10.17;94.13
80624;BME280;69981;44.768;9.600;2023-05-17T02:20:40;96682.41;;;10.11;94.04
80624;BME280;69981;44.768;9.600;2023-05-17T02:23:06;96678.84;;;10.17;93.96
80624;BME280;69981;44.768;9.600;2023-05-17T02:25:31;96679.34;;;10.07;94.69
80624;BME280;69981;44.768;9.600;2023-05-17T02:27:57;96674.19;;;10.06;94.61
80624;BME280;69981;44.768;9.600;2023-05-17T02:30:23;96671.81;;;9.98;94.67
80624;BME280;69981;44.768;9.600;2023-05-17T02:32:50;96668.00;;;9.87;94.83
80624;BME280;69981;44.768;9.600;2023-05-17T02:35:15;96671.50;;;9.88;95.53
80624;BME280;69981;44.768;9.600;2023-05-17T02:37:41;96666.03;;;9.94;95.38
80624;BME280;69981;44.768;9.600;2023-05-17T02:40:07;96665.94;;;10.01;95.23
80624;BME280;69981;44.768;9.600;2023-05-17T02:42:34;96672.97;;;10.02;95.00
80624;BME280;69981;44.768;9.600;2023-05-17T02:45:00;96666.75;;;10.01;95.00
80624;BME280;69981;44.768;9.600;2023-05-17T02:47:26;96655.31;;;10.06;94.83
80624;BME280;69981;44.768;9.600;2023-05-17T02:49:51;96661.28;;;10.08;94.86
80624;BME280;69981;44.768;9.600;2023-05-17T02:52:17;96671.25;;;10.07;94.53
80624;BME280;69981;44.768;9.600;2023-05-17T02:54:43;96665.03;;;10.07;94.58
80624;BME280;69981;44.768;9.600;2023-05-17T02:57:09;96670.50;;;10.00;94.62
80624;BME280;69981;44.768;9.600;2023-05-17T02:59:35;96675.91;;;10.00;94.57
80624;BME280;69981;44.768;9.600;2023-05-17T03:02:01;96680.16;;;10.08;94.29
80624;BME280;69981;44.768;9.600;2023-05-17T03:04:27;96687.06;;;10.04;94.36
80624;BME280;69981;44.768;9.600;2023-05-17T03:06:53;96690.00;;;10.02;94.55
80624;BME280;69981;44.768;9.600;2023-05-17T03:09:20;96696.66;;;10.00;94.76
80624;BME280;69981;44.768;9.600;2023-05-17T03:11:48;96702.31;;;9.98;94.77
80624;BME280;69981;44.768;9.600;2023-05-17T03:14:19;96707.91;;;9.97;94.27
80624;BME280;69981;44.768;9.600;2023-05-17T03:16:45;96708.75;;;9.97;94.57
80624;BME280;69981;44.768;9.600;2023-05-17T03:19:11;96722.00;;;9.99;94.49
80624;BME280;69981;44.768;9.600;2023-05-17T03:21:37;96716.00;;;9.97;94.49
80624;BME280;69981;44.768;9.600;2023-05-17T03:24:03;96722.44;;;9.96;94.54
80624;BME280;69981;44.768;9.600;2023-05-17T03:26:29;96724.72;;;9.99;94.27
80624;BME280;69981;44.768;9.600;2023-05-17T03:28:57;96715.09;;;10.03;94.08
80624;BME280;69981;44.768;9.600;2023-05-17T03:31:23;96729.28;;;9.98;94.11
80624;BME280;69981;44.768;9.600;2023-05-17T03:33:49;96734.06;;;9.96;94.14
80624;BME280;69981;44.768;9.600;2023-05-17T03:36:16;96735.13;;;9.95;94.24
80624;BME280;69981;44.768;9.600;2023-05-17T03:38:42;96739.47;;;9.96;94.19
80624;BME280;69981;44.768;9.600;2023-05-17T03:41:07;96736.75;;;9.96;93.95
80624;BME280;69981;44.768;9.600;2023-05-17T03:43:33;96737.00;;;9.95;94.07
80624;BME280;69981;44.768;9.600;2023-05-17T03:45:59;96751.53;;;9.94;94.41
80624;BME280;69981;44.768;9.600;2023-05-17T03:48:26;96747.19;;;9.93;94.00
80624;BME280;69981;44.768;9.600;2023-05-17T03:50:52;96755.88;;;9.95;93.89
80624;BME280;69981;44.768;9.600;2023-05-17T03:53:18;96756.91;;;9.94;94.01
80624;BME280;69981;44.768;9.600;2023-05-17T03:55:43;96762.16;;;9.89;94.26
80624;BME280;69981;44.768;9.600;2023-05-17T03:58:10;96764.44;;;9.92;94.58
80624;BME280;69981;44.768;9.600;2023-05-17T04:00:38;96767.06;;;9.98;94.29
80624;BME280;69981;44.768;9.600;2023-05-17T04:03:09;96768.31;;;9.96;94.47
80624;BME280;69981;44.768;9.600;2023-05-17T04:05:38;96775.91;;;10.05;94.22
80624;BME280;69981;44.768;9.600;2023-05-17T04:08:05;96781.44;;;9.92;94.35
80624;BME280;69981;44.768;9.600;2023-05-17T04:10:31;96781.72;;;9.84;94.75
80624;BME280;69981;44.768;9.600;2023-05-17T04:12:57;96784.66;;;9.83;94.59
80624;BME280;69981;44.768;9.600;2023-05-17T04:15:24;96793.88;;;9.75;95.08
80624;BME280;69981;44.768;9.600;2023-05-17T04:17:51;96798.38;;;9.81;94.69
80624;BME280;69981;44.768;9.600;2023-05-17T04:20:17;96800.38;;;9.67;95.25
80624;BME280;69981;44.768;9.600;2023-05-17T04:22:42;96804.06;;;9.73;95.25
80624;BME280;69981;44.768;9.600;2023-05-17T04:25:09;96794.47;;;9.77;95.40
80624;BME280;69981;44.768;9.600;2023-05-17T04:27:35;96803.22;;;9.72;94.72
80624;BME280;69981;44.768;9.600;2023-05-17T04:30:04;96807.25;;;9.82;95.21
80624;BME280;69981;44.768;9.600;2023-05-17T04:32:29;96815.91;;;9.90;95.02
80624;BME280;69981;44.768;9.600;2023-05-17T04:34:57;96818.88;;;9.82;95.30
80624;BME280;69981;44.768;9.600;2023-05-17T04:37:23;96818.00;;;9.88;94.91
80624;BME280;69981;44.768;9.600;2023-05-17T04:39:52;96821.28;;;9.90;95.07
80624;BME280;69981;44.768;9.600;2023-05-17T04:42:18;96827.72;;;9.89;94.84
80624;BME280;69981;44.768;9.600;2023-05-17T04:44:49;96838.03;;;9.99;94.57
80624;BME280;69981;44.768;9.600;2023-05-17T04:47:14;96832.63;;;9.99;94.39
80624;BME280;69981;44.768;9.600;2023-05-17T04:49:40;96844.47;;;9.98;94.67
80624;BME280;69981;44.768;9.600;2023-05-17T04:52:06;96853.72;;;9.84;94.74
80624;BME280;69981;44.768;9.600;2023-05-17T04:54:32;96857.88;;;9.86;95.22
80624;BME280;69981;44.768;9.600;2023-05-17T04:56:58;96861.47;;;9.98;95.04
80624;BME280;69981;44.768;9.600;2023-05-17T04:59:48;96864.53;;;10.02;94.29
80624;BME280;69981;44.768;9.600;2023-05-17T05:02:13;96866.03;;;9.98;94.69
80624;BME280;69981;44.768;9.600;2023-05-17T05:04:39;96868.28;;;10.01;94.74
80624;BME280;69981;44.768;9.600;2023-05-17T05:07:05;96870.75;;;10.02;94.42
80624;BME280;69981;44.768;9.600;2023-05-17T05:09:31;96877.34;;;10.06;94.75
80624;BME280;69981;44.768;9.600;2023-05-17T05:11:56;96881.34;;;10.04;95.24
80624;BME280;69981;44.768;9.600;2023-05-17T05:14:22;96893.09;;;10.09;94.17
80624;BME280;69981;44.768;9.600;2023-05-17T05:16:47;96895.31;;;10.19;94.36
80624;BME280;69981;44.768;9.600;2023-05-17T05:19:13;96899.44;;;10.22;94.59
80624;BME280;69981;44.768;9.600;2023-05-17T05:21:39;96904.38;;;10.25;94.22
80624;BME280;69981;44.768;9.600;2023-05-17T05:24:06;96909.56;;;10.26;94.24
80624;BME280;69981;44.768;9.600;2023-05-17T05:26:32;96919.47;;;10.32;93.83
80624;BME280;69981;44.768;9.600;2023-05-17T05:29:00;96912.13;;;10.39;93.41
80624;BME280;69981;44.768;9.600;2023-05-17T05:31:25;96919.63;;;10.74;90.66
80624;BME280;69981;44.768;9.600;2023-05-17T05:33:55;96910.94;;;10.53;92.56
80624;BME280;69981;44.768;9.600;2023-05-17T05:36:21;96917.22;;;10.47;93.51
80624;BME280;69981;44.768;9.600;2023-05-17T05:38:47;96926.75;;;10.50;94.01
80624;BME280;69981;44.768;9.600;2023-05-17T05:41:14;96924.50;;;10.47;94.34
80624;BME280;69981;44.768;9.600;2023-05-17T05:43:39;96927.88;;;10.42;94.51
80624;BME280;69981;44.768;9.600;2023-05-17T05:46:06;96927.97;;;10.36;94.79
80624;BME280;69981;44.768;9.600;2023-05-17T05:48:33;96934.31;;;10.41;94.51
80624;BME280;69981;44.768;9.600;2023-05-17T05:50:58;96927.97;;;10.36;94.76
80624;BME280;69981;44.768;9.600;2023-05-17T05:53:24;96943.63;;;10.45;95.10
80624;BME280;69981;44.768;9.600;2023-05-17T05:55:53;96941.47;;;10.54;94.88
80624;BME280;69981;44.768;9.600;2023-05-17T05:58:19;96950.31;;;10.61;94.56
80624;BME280;69981;44.768;9.600;2023-05-17T06:00:45;96947.00;;;10.59;94.64
80624;BME280;69981;44.768;9.600;2023-05-17T06:03:10;96952.19;;;10.61;94.78
80624;BME280;69981;44.768;9.600;2023-05-17T06:05:36;96959.22;;;10.62;93.98
80624;BME280;69981;44.768;9.600;2023-05-17T06:08:02;96967.03;;;10.70;93.84
80624;BME280;69981;44.768;9.600;2023-05-17T06:10:28;96967.41;;;10.73;93.92
80624;BME280;69981;44.768;9.600;2023-05-17T06:12:53;96967.00;;;10.88;94.20
80624;BME280;69981;44.768;9.600;2023-05-17T06:15:19;96975.66;;;10.78;94.22
80624;BME280;69981;44.768;9.600;2023-05-17T06:17:44;96974.84;;;10.78;93.29
80624;BME280;69981;44.768;9.600;2023-05-17T06:20:10;96979.69;;;10.69;94.63
80624;BME280;69981;44.768;9.600;2023-05-17T06:22:35;96977.53;;;10.60;95.14
80624;BME280;69981;44.768;9.600;2023-05-17T06:25:01;96981.81;;;10.49;95.54
80624;BME280;69981;44.768;9.600;2023-05-17T06:27:26;96981.28;;;10.59;95.27
80624;BME280;69981;44.768;9.600;2023-05-17T06:29:52;96978.94;;;10.62;94.16
80624;BME280;69981;44.768;9.600;2023-05-17T06:32:18;96986.53;;;10.53;94.70
80624;BME280;69981;44.768;9.600;2023-05-17T06:34:43;96986.53;;;10.53;95.10
80624;BME280;69981;44.768;9.600;2023-05-17T06:37:10;96988.91;;;10.62;94.63
80624;BME280;69981;44.768;9.600;2023-05-17T06:39:35;97000.25;;;10.70;94.62
80624;BME280;69981;44.768;9.600;2023-05-17T06:42:00;97010.63;;;10.73;94.60
80624;BME280;69981;44.768;9.600;2023-05-17T06:44:31;97013.47;;;10.78;94.25
80624;BME280;69981;44.768;9.600;2023-05-17T06:46:57;97019.25;;;10.82;94.13
80624;BME280;69981;44.768;9.600;2023-05-17T06:49:25;97032.47;;;10.90;94.20
80624;BME280;69981;44.768;9.600;2023-05-17T06:51:51;97033.38;;;11.02;93.68
80624;BME280;69981;44.768;9.600;2023-05-17T06:54:16;97030.66;;;11.02;93.62
80624;BME280;69981;44.768;9.600;2023-05-17T06:56:44;97030.19;;;11.05;93.93
80624;BME280;69981;44.768;9.600;2023-05-17T06:59:09;97034.69;;;11.11;94.27
80624;BME280;69981;44.768;9.600;2023-05-17T07:01:36;97040.50;;;11.15;93.76
80624;BME280;69981;44.768;9.600;2023-05-17T07:04:01;97040.78;;;11.25;92.04
80624;BME280;69981;44.768;9.600;2023-05-17T07:06:27;97035.00;;;11.21;93.43
80624;BME280;69981;44.768;9.600;2023-05-17T07:08:53;97042.00;;;11.29;89.98
80624;BME280;69981;44.768;9.600;2023-05-17T07:11:18;97057.00;;;11.25;90.65
80624;BME280;69981;44.768;9.600;2023-05-17T07:13:44;97057.97;;;11.30;91.49
80624;BME280;69981;44.768;9.600;2023-05-17T07:16:09;97047.75;;;11.32;90.44
80624;BME280;69981;44.768;9.600;2023-05-17T07:18:35;97059.59;;;11.50;87.00
80624;BME280;69981;44.768;9.600;2023-05-17T07:21:00;97066.16;;;11.72;84.45
80624;BME280;69981;44.768;9.600;2023-05-17T07:23:27;97067.47;;;11.51;87.83
80624;BME280;69981;44.768;9.600;2023-05-17T07:25:52;97072.78;;;11.28;88.43
80624;BME280;69981;44.768;9.600;2023-05-17T07:28:18;97068.75;;;11.49;85.32
80624;BME280;69981;44.768;9.600;2023-05-17T07:30:43;97075.50;;;11.58;83.10
80624;BME280;69981;44.768;9.600;2023-05-17T07:33:09;97085.16;;;11.54;85.92
80624;BME280;69981;44.768;9.600;2023-05-17T07:35:34;97075.75;;;11.38;87.17
80624;BME280;69981;44.768;9.600;2023-05-17T07:38:00;97086.44;;;11.33;89.17
80624;BME280;69981;44.768;9.600;2023-05-17T07:40:25;97085.88;;;11.43;85.46
80624;BME280;69981;44.768;9.600;2023-05-17T07:42:51;97088.44;;;11.38;79.12
80624;BME280;69981;44.768;9.600;2023-05-17T07:45:17;97079.34;;;11.50;81.46
80624;BME280;69981;44.768;9.600;2023-05-17T07:47:43;97085.31;;;11.41;86.07
80624;BME280;69981;44.768;9.600;2023-05-17T07:50:09;97086.50;;;11.26;88.50
80624;BME280;69981;44.768;9.600;2023-05-17T07:52:34;97085.81;;;11.31;87.26
80624;BME280;69981;44.768;9.600;2023-05-17T07:55:00;97080.63;;;11.29;87.78
80624;BME280;69981;44.768;9.600;2023-05-17T07:57:26;97082.91;;;11.32;89.01
80624;BME280;69981;44.768;9.600;2023-05-17T07:59:52;97080.47;;;11.43;82.52
80624;BME280;69981;44.768;9.600;2023-05-17T08:02:17;97081.53;;;11.23;88.01
80624;BME280;69981;44.768;9.600;2023-05-17T08:04:43;97085.69;;;11.26;85.77
80624;BME280;69981;44.768;9.600;2023-05-17T08:07:09;97079.16;;;11.15;89.29
80624;BME280;69981;44.768;9.600;2023-05-17T08:09:35;97081.88;;;11.15;89.27
80624;BME280;69981;44.768;9.600;2023-05-17T08:12:00;97080.06;;;11.09;89.13
80624;BME280;69981;44.768;9.600;2023-05-17T08:14:26;97084.25;;;11.05;90.20
80624;BME280;69981;44.768;9.600;2023-05-17T08:16:51;97096.13;;;11.04;89.38
80624;BME280;69981;44.768;9.600;2023-05-17T08:19:17;97086.94;;;11.05;90.53
80624;BME280;69981;44.768;9.600;2023-05-17T08:21:43;97083.75;;;11.15;92.14
80624;BME280;69981;44.768;9.600;2023-05-17T08:24:10;97101.63;;;11.16;90.16
80624;BME280;69981;44.768;9.600;2023-05-17T08:26:36;97098.91;;;11.34;91.36
80624;BME280;69981;44.768;9.600;2023-05-17T08:29:02;97111.66;;;11.45;91.58
80624;BME280;69981;44.768;9.600;2023-05-17T08:31:29;97107.84;;;11.53;90.09
80624;BME280;69981;44.768;9.600;2023-05-17T08:33:56;97113.06;;;11.66;89.30
80624;BME280;69981;44.768;9.600;2023-05-17T08:36:21;97105.63;;;11.80;88.32
80624;BME280;69981;44.768;9.600;2023-05-17T08:38:47;97100.97;;;11.98;88.87
80624;BME280;69981;44.768;9.600;2023-05-17T08:41:13;97106.31;;;12.05;90.94
80624;BME280;69981;44.768;9.600;2023-05-17T08:43:39;97105.19;;;12.24;88.40
80624;BME280;69981;44.768;9.600;2023-05-17T08:46:04;97099.06;;;12.29;87.50
80624;BME280;69981;44.768;9.600;2023-05-17T08:48:30;97086.75;;;12.56;87.44
80624;BME280;69981;44.768;9.600;2023-05-17T09:02:28;97097.59;;;13.26;86.30
80624;BME280;69981;44.768;9.600;2023-05-17T09:04:55;97088.47;;;13.44;85.16
80624;BME280;69981;44.768;9.600;2023-05-17T09:07:23;97092.81;;;13.56;84.70
80624;BME280;69981;44.768;9.600;2023-05-17T09:09:52;97102.63;;;13.34;83.83
80624;BME280;69981;44.768;9.600;2023-05-17T09:12:21;97103.72;;;13.33;81.79
80624;BME280;69981;44.768;9.600;2023-05-17T09:14:47;97105.66;;;13.61;80.77
80624;BME280;69981;44.768;9.600;2023-05-17T09:17:19;97109.09;;;13.56;81.28
80624;BME280;69981;44.768;9.600;2023-05-17T09:19:46;97110.53;;;13.47;81.76
80624;BME280;69981;44.768;9.600;2023-05-17T09:22:13;97105.91;;;13.48;80.87
80624;BME280;69981;44.768;9.600;2023-05-17T09:24:40;97105.75;;;13.66;86.98
80624;BME280;69981;44.768;9.600;2023-05-17T09:27:06;97113.06;;;13.25;80.14
80624;BME280;69981;44.768;9.600;2023-05-17T09:29:34;97121.13;;;13.49;81.97
80624;BME280;69981;44.768;9.600;2023-05-17T09:34:39;97117.59;;;13.88;77.45
80624;BME280;69981;44.768;9.600;2023-05-17T09:37:11;97124.09;;;14.32;80.46
80624;BME280;69981;44.768;9.600;2023-05-17T09:39:38;97128.59;;;14.38;79.78
80624;BME280;69981;44.768;9.600;2023-05-17T09:42:04;97126.75;;;14.72;83.20
80624;BME280;69981;44.768;9.600;2023-05-17T09:44:30;97128.47;;;14.62;78.26
80624;BME280;69981;44.768;9.600;2023-05-17T09:46:56;97133.59;;;14.75;82.79
80624;BME280;69981;44.768;9.600;2023-05-17T09:49:25;97121.06;;;14.74;82.00
80624;BME280;69981;44.768;9.600;2023-05-17T09:51:52;97124.66;;;14.96;76.46
80624;BME280;69981;44.768;9.600;2023-05-17T09:54:17;97128.16;;;14.75;71.75
80624;BME280;69981;44.768;9.600;2023-05-17T09:56:43;97131.66;;;14.42;76.76
80624;BME280;69981;44.768;9.600;2023-05-17T09:59:11;97133.16;;;14.21;73.47
80624;BME280;69981;44.768;9.600;2023-05-17T10:01:39;97144.47;;;14.30;77.86
80624;BME280;69981;44.768;9.600;2023-05-17T10:04:08;97155.97;;;14.48;78.48
80624;BME280;69981;44.768;9.600;2023-05-17T10:06:37;97144.63;;;14.85;74.43
80624;BME280;69981;44.768;9.600;2023-05-17T10:09:05;97153.34;;;14.53;72.99
80624;BME280;69981;44.768;9.600;2023-05-17T10:11:32;97147.47;;;14.45;73.40
80624;BME280;69981;44.768;9.600;2023-05-17T10:16:36;97157.69;;;14.26;74.32
80624;BME280;69981;44.768;9.600;2023-05-17T10:19:02;97156.59;;;14.39;72.13
80624;BME280;69981;44.768;9.600;2023-05-17T10:21:32;97155.56;;;14.28;72.33
80624;BME280;69981;44.768;9.600;2023-05-17T10:24:01;97162.78;;;14.23;67.58
80624;BME280;69981;44.768;9.600;2023-05-17T10:26:27;97164.31;;;14.30;70.14
80624;BME280;69981;44.768;9.600;2023-05-17T10:28:56;97164.88;;;14.04;69.70
80624;BME280;69981;44.768;9.600;2023-05-17T10:31:29;97174.78;;;14.38;69.96
80624;BME280;69981;44.768;9.600;2023-05-17T10:33:55;97172.38;;;14.25;68.38
80624;BME280;69981;44.768;9.600;2023-05-17T10:36:23;97165.56;;;14.39;72.28
80624;BME280;69981;44.768;9.600;2023-05-17T10:38:49;97168.41;;;14.61;67.43
80624;BME280;69981;44.768;9.600;2023-05-17T10:41:16;97170.16;;;14.84;66.86
80624;BME280;69981;44.768;9.600;2023-05-17T10:43:43;97160.91;;;14.51;78.75
80624;BME280;69981;44.768;9.600;2023-05-17T10:46:17;97166.38;;;14.68;76.92
80624;BME280;69981;44.768;9.600;2023-05-17T10:48:49;97164.72;;;14.84;76.15
80624;BME280;69981;44.768;9.600;2023-05-17T10:51:21;97166.84;;;14.82;76.61
80624;BME280;69981;44.768;9.600;2023-05-17T10:54:06;97168.09;;;14.74;77.01
80624;BME280;69981;44.768;9.600;2023-05-17T10:56:32;97167.75;;;14.71;77.35
80624;BME280;69981;44.768;9.600;2023-05-17T11:02:04;97165.13;;;14.31;79.01
80624;BME280;69981;44.768;9.600;2023-05-17T11:09:42;97178.75;;;14.19;76.84
80624;BME280;69981;44.768;9.600;2023-05-17T11:12:09;97179.31;;;14.21;77.35
80624;BME280;69981;44.768;9.600;2023-05-17T11:17:23;97183.38;;;14.18;77.21
80624;BME280;69981;44.768;9.600;2023-05-17T11:19:54;97175.53;;;14.22;76.23
80624;BME280;69981;44.768;9.600;2023-05-17T11:22:26;97178.41;;;14.15;78.47
80624;BME280;69981;44.768;9.600;2023-05-17T11:24:55;97180.44;;;14.08;80.79
80624;BME280;69981;44.768;9.600;2023-05-17T11:27:22;97183.16;;;14.08;78.53
80624;BME280;69981;44.768;9.600;2023-05-17T11:29:56;97172.66;;;14.12;79.24
80624;BME280;69981;44.768;9.600;2023-05-17T11:32:28;97171.38;;;14.31;75.53
80624;BME280;69981;44.768;9.600;2023-05-17T11:34:54;97173.91;;;14.21;74.94
80624;BME280;69981;44.768;9.600;2023-05-17T11:37:27;97175.97;;;14.02;78.51
80624;BME280;69981;44.768;9.600;2023-05-17T11:40:05;97175.41;;;14.00;75.91
80624;BME280;69981;44.768;9.600;2023-05-17T11:42:32;97175.41;;;14.00;76.26
80624;BME280;69981;44.768;9.600;2023-05-17T11:44:59;97178.00;;;13.95;77.75
80624;BME280;69981;44.768;9.600;2023-05-17T11:47:26;97180.47;;;13.97;80.49
80624;BME280;69981;44.768;9.600;2023-05-17T11:49:53;97180.56;;;14.02;82.08
80624;BME280;69981;44.768;9.600;2023-05-17T11:52:19;97187.75;;;14.08;81.43
80624;BME280;69981;44.768;9.600;2023-05-17T11:54:45;97182.78;;;14.16;76.80
80624;BME280;69981;44.768;9.600;2023-05-17T11:57:12;97182.25;;;14.31;73.24
80624;BME280;69981;44.768;9.600;2023-05-17T11:59:41;97191.06;;;14.10;76.47
80624;BME280;69981;44.768;9.600;2023-05-17T12:02:09;97188.25;;;14.05;78.23
80624;BME280;69981;44.768;9.600;2023-05-17T12:04:54;97190.47;;;14.08;81.88
80624;BME280;69981;44.768;9.600;2023-05-17T12:07:20;97180.91;;;14.45;79.59
80624;BME280;69981;44.768;9.600;2023-05-17T12:09:45;97186.47;;;14.67;80.85
80624;BME280;69981;44.768;9.600;2023-05-17T12:12:12;97184.00;;;14.82;78.37
80624;BME280;69981;44.768;9.600;2023-05-17T12:14:37;97189.78;;;15.03;77.05
80624;BME280;69981;44.768;9.600;2023-05-17T12:17:07;97183.28;;;14.87;80.31
80624;BME280;69981;44.768;9.600;2023-05-17T12:19:33;97193.00;;;14.38;76.00
80624;BME280;69981;44.768;9.600;2023-05-17T12:22:09;97196.31;;;14.28;79.40
80624;BME280;69981;44.768;9.600;2023-05-17T12:24:40;97192.50;;;14.41;81.40
80624;BME280;69981;44.768;9.600;2023-05-17T12:27:06;97188.06;;;14.51;79.02
80624;BME280;69981;44.768;9.600;2023-05-17T12:29:31;97196.53;;;14.38;78.82
80624;BME280;69981;44.768;9.600;2023-05-17T12:31:58;97200.91;;;14.39;78.08
80624;BME280;69981;44.768;9.600;2023-05-17T12:34:24;97192.75;;;14.39;73.83
80624;BME280;69981;44.768;9.600;2023-05-17T12:36:51;97195.38;;;14.23;77.48
80624;BME280;69981;44.768;9.600;2023-05-17T12:39:17;97201.94;;;13.70;79.47
80624;BME280;69981;44.768;9.600;2023-05-17T12:41:48;97197.19;;;13.65;80.22
80624;BME280;69981;44.768;9.600;2023-05-17T12:44:14;97200.28;;;13.69;82.77
80624;BME280;69981;44.768;9.600;2023-05-17T12:46:40;97200.41;;;13.51;83.09
80624;BME280;69981;44.768;9.600;2023-05-17T12:49:07;97196.88;;;13.50;77.63
80624;BME280;69981;44.768;9.600;2023-05-17T12:51:40;97204.91;;;13.57;78.47
80624;BME280;69981;44.768;9.600;2023-05-17T12:54:07;97201.47;;;13.61;83.45
80624;BME280;69981;44.768;9.600;2023-05-17T12:56:33;97203.81;;;13.58;84.72
80624;BME280;69981;44.768;9.600;2023-05-17T12:59:14;97208.19;;;13.47;85.86
80624;BME280;69981;44.768;9.600;2023-05-17T13:01:52;97209.38;;;13.51;86.64
80624;BME280;69981;44.768;9.600;2023-05-17T13:04:22;97217.84;;;13.66;85.40
80624;BME280;69981;44.768;9.600;2023-05-17T13:06:54;97217.94;;;13.83;84.03
80624;BME280;69981;44.768;9.600;2023-05-17T13:09:21;97214.03;;;13.91;82.77
80624;BME280;69981;44.768;9.600;2023-05-17T13:11:59;97213.75;;;14.04;82.83
80624;BME280;69981;44.768;9.600;2023-05-17T13:14:42;97218.75;;;13.84;80.75
80624;BME280;69981;44.768;9.600;2023-05-17T13:19:40;97218.06;;;13.76;83.52
80624;BME280;69981;44.768;9.600;2023-05-17T13:22:06;97219.28;;;13.69;82.18
80624;BME280;69981;44.768;9.600;2023-05-17T13:24:33;97223.78;;;13.63;83.34
80624;BME280;69981;44.768;9.600;2023-05-17T13:27:00;97218.81;;;13.60;83.91
80624;BME280;69981;44.768;9.600;2023-05-17T13:29:27;97222.34;;;13.61;83.03
80624;BME280;69981;44.768;9.600;2023-05-17T13:31:52;97225.06;;;13.61;84.82
80624;BME280;69981;44.768;9.600;2023-05-17T13:34:18;97232.59;;;13.59;85.29
80624;BME280;69981;44.768;9.600;2023-05-17T13:36:46;97232.25;;;13.55;85.67